createdAt,value
2023-04-13T00:01:41.326Z,10.30
2023-04-13T00:04:09.999Z,9.40
2023-04-13T00:06:39.099Z,9.82
2023-04-13T00:09:07.328Z,10.40
2023-04-13T00:11:35.727Z,10.88
2023-04-13T00:14:03.126Z,10.52
2023-04-13T00:16:31.803Z,9.43
2023-04-13T00:18:59.122Z,8.38
2023-04-13T00:21:28.007Z,8.10
2023-04-13T00:23:55.233Z,8.57
2023-04-13T00:26:22.770Z,8.20
2023-04-13T00:28:50.042Z,9.20
2023-04-13T00:31:17.440Z,10.70
2023-04-13T00:34:00.761Z,5.50
2023-04-13T00:36:28.527Z,7.13
2023-04-13T00:38:57.351Z,8.32
2023-04-13T00:41:28.513Z,8.38
2023-04-13T00:43:56.401Z,8.07
2023-04-13T00:46:23.856Z,9.25
2023-04-13T00:48:55.740Z,7.28
2023-04-13T00:51:23.720Z,9.85
2023-04-13T00:53:51.393Z,9.00
2023-04-13T00:56:27.345Z,6.35
2023-04-13T00:58:56.406Z,6.75
2023-04-13T01:01:23.662Z,7.18
2023-04-13T01:03:53.862Z,6.28
2023-04-13T01:06:33.901Z,9.30
2023-04-13T01:09:08.641Z,8.40
2023-04-13T01:11:48.146Z,9.73
2023-04-13T01:14:30.957Z,8.32
2023-04-13T01:17:02.603Z,5.88
2023-04-13T01:19:57.366Z,7.22
2023-04-13T01:22:27.305Z,8.63
2023-04-13T01:24:54.733Z,8.80
2023-04-13T01:27:44.694Z,5.90
2023-04-13T01:30:12.211Z,5.65
2023-04-13T01:32:41.133Z,4.85
2023-04-13T01:35:10.814Z,5.00
2023-04-13T01:37:39.004Z,5.97
2023-04-13T01:40:10.286Z,4.10
2023-04-13T01:42:40.461Z,5.70
2023-04-13T01:45:13.170Z,7.63
2023-04-13T01:47:42.621Z,10.05
2023-04-13T01:50:25.808Z,9.90
2023-04-13T01:52:55.385Z,8.65
2023-04-13T01:55:22.966Z,5.28
2023-04-13T01:57:52.156Z,6.50
2023-04-13T02:00:19.444Z,7.43
2023-04-13T02:02:47.225Z,8.15
2023-04-13T02:05:14.761Z,4.05
2023-04-13T02:07:44.790Z,5.90
2023-04-13T02:10:12.080Z,5.32
2023-04-13T02:12:39.727Z,4.38
2023-04-13T02:15:08.149Z,5.07
2023-04-13T02:17:36.906Z,4.70
2023-04-13T02:20:11.255Z,7.13
2023-04-13T02:22:48.113Z,5.63
2023-04-13T02:25:17.344Z,8.70
2023-04-13T02:27:45.507Z,7.13
2023-04-13T02:30:12.883Z,7.35
2023-04-13T02:33:00.142Z,7.78
2023-04-13T02:35:27.498Z,6.03
2023-04-13T02:37:56.023Z,5.13
2023-04-13T02:40:28.482Z,14.70
2023-04-13T02:42:59.936Z,26.33
2023-04-13T02:45:28.560Z,25.30
2023-04-13T02:47:57.264Z,13.60
2023-04-13T02:50:25.094Z,17.20
2023-04-13T02:52:53.645Z,6.85
2023-04-13T02:55:21.339Z,7.82
2023-04-13T02:57:49.816Z,6.78
2023-04-13T03:00:17.401Z,7.90
2023-04-13T03:03:04.616Z,10.93
2023-04-13T03:05:33.096Z,5.47
2023-04-13T03:08:00.323Z,6.32
2023-04-13T03:10:27.929Z,9.20
2023-04-13T03:12:56.641Z,7.28
2023-04-13T03:15:24.543Z,6.30
2023-04-13T03:17:53.036Z,6.22
2023-04-13T03:20:21.286Z,6.32
2023-04-13T03:22:48.551Z,7.22
2023-04-13T03:25:16.139Z,7.25
2023-04-13T03:27:43.498Z,6.75
2023-04-13T03:30:11.296Z,7.70
2023-04-13T03:32:58.540Z,5.95
2023-04-13T03:35:25.795Z,8.63
2023-04-13T03:37:53.059Z,6.75
2023-04-13T03:40:20.403Z,8.70
2023-04-13T03:42:48.841Z,12.13
2023-04-13T03:45:19.857Z,9.13
2023-04-13T03:47:47.258Z,7.90
2023-04-13T03:50:14.640Z,9.77
2023-04-13T03:52:42.774Z,8.32
2023-04-13T03:55:10.198Z,9.00
2023-04-13T03:57:37.839Z,8.45
2023-04-13T04:00:07.259Z,9.38
2023-04-13T04:02:35.543Z,7.97
2023-04-13T04:05:03.517Z,9.82
2023-04-13T04:07:32.189Z,8.05
2023-04-13T04:09:59.505Z,11.95
2023-04-13T04:12:26.748Z,9.25
2023-04-13T04:14:53.968Z,8.68
2023-04-13T04:17:21.695Z,7.15
2023-04-13T04:19:49.980Z,9.25
2023-04-13T04:22:17.569Z,12.30
2023-04-13T04:24:49.954Z,17.23
2023-04-13T04:27:17.264Z,20.75
2023-04-13T04:29:49.110Z,16.67
2023-04-13T04:32:19.964Z,19.88
2023-04-13T04:34:47.193Z,11.93
2023-04-13T04:37:20.698Z,8.82
2023-04-13T04:39:48.514Z,7.85
2023-04-13T04:42:18.839Z,7.60
2023-04-13T04:44:50.462Z,7.22
2023-04-13T04:47:19.738Z,7.18
2023-04-13T04:49:47.313Z,6.55
2023-04-13T04:52:14.754Z,7.38
2023-04-13T04:54:42.088Z,5.47
2023-04-13T04:57:12.343Z,8.60
2023-04-13T04:59:40.912Z,7.45
2023-04-13T05:02:08.353Z,5.68
2023-04-13T05:04:36.004Z,4.88
2023-04-13T05:07:03.324Z,3.53
2023-04-13T05:09:31.097Z,4.63
2023-04-13T05:11:58.467Z,4.75
2023-04-13T05:14:26.991Z,5.25
2023-04-13T05:16:54.527Z,6.70
2023-04-13T05:19:22.131Z,5.28
2023-04-13T05:21:49.353Z,5.60
2023-04-13T05:24:16.841Z,6.45
2023-04-13T05:26:44.790Z,5.57
2023-04-13T05:29:12.062Z,10.07
2023-04-13T05:31:39.889Z,9.50
2023-04-13T05:34:07.816Z,6.00
2023-04-13T05:36:35.129Z,6.78
2023-04-13T05:39:02.885Z,10.70
2023-04-13T05:41:30.442Z,7.10
2023-04-13T05:43:59.171Z,13.45
2023-04-13T05:46:27.865Z,15.63
2023-04-13T05:48:55.440Z,12.88
2023-04-13T05:51:22.958Z,9.30
2023-04-13T05:53:50.223Z,11.45
2023-04-13T05:56:17.462Z,9.82
2023-04-13T05:58:46.645Z,14.05
2023-04-13T06:01:13.928Z,14.45
2023-04-13T06:03:41.454Z,19.60
2023-04-13T06:06:08.942Z,19.05
2023-04-13T06:08:36.347Z,16.92
2023-04-13T06:11:03.614Z,16.38
2023-04-13T06:16:02.489Z,14.13
2023-04-13T06:18:30.020Z,16.63
2023-04-13T06:20:59.749Z,11.40
2023-04-13T06:23:28.029Z,10.57
2023-04-13T06:25:57.094Z,8.18
2023-04-13T06:28:29.259Z,6.60
2023-04-13T06:30:57.068Z,6.67
2023-04-13T06:33:26.176Z,7.07
2023-04-13T06:35:55.714Z,6.47
2023-04-13T06:38:23.469Z,7.25
2023-04-13T06:40:50.915Z,10.45
2023-04-13T06:43:29.045Z,6.03
2023-04-13T06:45:58.745Z,7.15
2023-04-13T06:48:26.317Z,6.07
2023-04-13T06:50:57.165Z,4.90
2023-04-13T06:53:24.714Z,5.63
2023-04-13T06:55:54.685Z,7.78
2023-04-13T06:58:23.367Z,5.20
2023-04-13T07:00:50.757Z,4.90
2023-04-13T07:03:19.291Z,6.50
2023-04-13T07:05:47.929Z,4.65
2023-04-13T07:08:15.591Z,4.68
2023-04-13T07:10:42.978Z,4.90
2023-04-13T07:13:10.671Z,3.55
2023-04-13T07:15:38.278Z,4.50
2023-04-13T07:18:05.752Z,4.38
2023-04-13T07:20:35.735Z,6.13
2023-04-13T07:23:03.783Z,4.88
2023-04-13T07:25:31.191Z,5.60
2023-04-13T07:27:58.506Z,5.10
2023-04-13T07:30:25.940Z,5.78
2023-04-13T07:32:54.001Z,3.22
2023-04-13T07:35:21.619Z,3.90
2023-04-13T07:37:52.222Z,6.00
2023-04-13T07:40:20.380Z,5.47
2023-04-13T07:42:50.190Z,5.75
2023-04-13T07:45:18.060Z,8.93
2023-04-13T07:47:45.645Z,5.45
2023-04-13T07:50:13.405Z,4.93
2023-04-13T07:52:40.793Z,4.57
2023-04-13T07:55:08.693Z,3.92
2023-04-13T07:57:38.529Z,6.63
2023-04-13T08:00:06.449Z,9.65
2023-04-13T08:02:36.786Z,8.43
2023-04-13T08:05:05.136Z,5.63
2023-04-13T08:07:32.970Z,9.90
2023-04-13T08:10:00.458Z,8.50
2023-04-13T08:12:27.747Z,8.10
2023-04-13T08:15:01.968Z,6.22
2023-04-13T08:17:29.609Z,7.45
2023-04-13T08:19:57.052Z,11.57
2023-04-13T08:22:28.602Z,16.63
2023-04-13T08:24:56.613Z,9.05
2023-04-13T08:27:23.966Z,10.82
2023-04-13T08:29:56.054Z,7.70
2023-04-13T08:32:23.856Z,8.63
2023-04-13T08:34:51.466Z,9.15
2023-04-13T08:37:20.492Z,8.50
2023-04-13T08:39:48.736Z,8.02
2023-04-13T08:42:16.086Z,9.38
2023-04-13T08:44:43.424Z,9.05
2023-04-13T08:47:17.157Z,11.18
2023-04-13T08:49:46.936Z,8.50
2023-04-13T08:52:16.376Z,7.35
2023-04-13T08:54:44.750Z,7.20
2023-04-13T08:57:13.600Z,7.63
2023-04-13T08:59:41.790Z,6.70
2023-04-13T09:02:10.860Z,9.60
2023-04-13T09:04:39.455Z,15.30
2023-04-13T09:07:08.185Z,15.05
2023-04-13T09:09:38.240Z,9.80
2023-04-13T09:12:10.865Z,12.48
2023-04-13T09:14:38.668Z,16.92
2023-04-13T09:17:07.149Z,15.57
2023-04-13T09:19:40.220Z,11.23
2023-04-13T09:22:16.260Z,13.75
2023-04-13T09:24:44.188Z,14.02
2023-04-13T09:27:20.009Z,17.02
2023-04-13T09:29:51.669Z,12.75
2023-04-13T09:32:23.470Z,11.80
2023-04-13T09:37:40.073Z,15.07
2023-04-13T09:40:14.638Z,14.07
2023-04-13T09:42:43.167Z,12.85
2023-04-13T09:45:12.340Z,9.15
2023-04-13T09:47:40.636Z,13.98
2023-04-13T09:50:18.449Z,10.23
2023-04-13T09:52:45.917Z,13.73
2023-04-13T09:55:17.940Z,18.10
2023-04-13T09:57:45.430Z,16.80
2023-04-13T10:00:20.448Z,18.40
2023-04-13T10:02:50.212Z,15.68
2023-04-13T10:05:19.642Z,16.27
2023-04-13T10:07:47.391Z,13.75
2023-04-13T10:10:15.444Z,14.55
2023-04-13T10:12:50.970Z,13.40
2023-04-13T10:15:39.403Z,11.25
2023-04-13T10:18:16.284Z,10.93
2023-04-13T10:20:44.193Z,11.82
2023-04-13T10:23:11.834Z,11.55
2023-04-13T10:25:54.698Z,15.23
2023-04-13T10:28:26.180Z,15.43
2023-04-13T10:30:55.103Z,13.30
2023-04-13T10:33:24.065Z,15.68
2023-04-13T10:36:02.242Z,16.73
2023-04-13T10:38:30.001Z,13.07
2023-04-13T10:40:58.636Z,13.02
2023-04-13T10:43:29.711Z,12.10
2023-04-13T10:48:37.501Z,14.00
2023-04-13T10:51:05.902Z,20.10
2023-04-13T10:53:35.263Z,19.70
2023-04-13T10:56:02.645Z,14.25
2023-04-13T10:58:33.133Z,14.73
2023-04-13T11:01:00.744Z,15.32
2023-04-13T11:03:28.702Z,14.98
2023-04-13T11:05:59.187Z,12.35
2023-04-13T11:08:28.226Z,13.27
2023-04-13T11:10:56.453Z,14.18
2023-04-13T11:13:29.005Z,12.60
2023-04-13T11:16:02.888Z,11.88
2023-04-13T11:18:30.926Z,10.98
2023-04-13T11:20:58.543Z,11.07
2023-04-13T11:23:27.752Z,14.10
2023-04-13T11:25:59.891Z,10.18
2023-04-13T11:28:42.134Z,11.07
2023-04-13T11:31:11.299Z,14.38
2023-04-13T11:33:40.415Z,12.55
2023-04-13T11:36:09.733Z,14.80
2023-04-13T11:38:39.335Z,11.77
2023-04-13T11:43:37.520Z,11.13
2023-04-13T11:46:06.022Z,12.45
2023-04-13T11:48:33.338Z,12.55
2023-04-13T11:51:00.704Z,15.50
2023-04-13T11:53:28.209Z,10.85
2023-04-13T11:55:56.203Z,13.43
2023-04-13T11:58:24.237Z,10.27
2023-04-13T12:00:54.559Z,9.32
2023-04-13T12:06:12.917Z,12.77
2023-04-13T12:08:41.717Z,11.02
2023-04-13T12:13:47.200Z,11.07
2023-04-13T12:16:55.592Z,10.13
2023-04-13T12:19:16.204Z,14.55
2023-04-13T12:21:55.784Z,10.93
2023-04-13T12:24:40.157Z,8.93
2023-04-13T12:29:41.257Z,10.23
2023-04-13T12:32:11.795Z,13.85
2023-04-13T12:34:39.156Z,11.02
2023-04-13T12:37:07.165Z,8.38
2023-04-13T12:39:34.574Z,9.02
2023-04-13T12:42:02.481Z,11.15
2023-04-13T12:44:34.060Z,12.77
2023-04-13T12:47:02.371Z,11.70
2023-04-13T12:49:30.205Z,10.38
2023-04-13T12:51:57.711Z,11.55
2023-04-13T12:54:25.950Z,12.63
2023-04-13T12:56:53.143Z,11.27
2023-04-13T12:59:23.807Z,15.52
2023-04-13T13:01:51.370Z,11.95
2023-04-13T13:04:19.421Z,11.18
2023-04-13T13:06:47.757Z,11.48
2023-04-13T13:09:15.835Z,15.00
2023-04-13T13:11:43.468Z,15.15
2023-04-13T13:14:11.409Z,13.30
2023-04-13T13:16:38.827Z,13.43
2023-04-13T13:19:07.032Z,16.25
2023-04-13T13:21:35.041Z,13.10
2023-04-13T13:24:02.317Z,15.35
2023-04-13T13:26:39.463Z,16.63
2023-04-13T13:29:17.980Z,14.20
2023-04-13T13:31:45.582Z,15.77
2023-04-13T13:34:12.849Z,28.17
2023-04-13T13:36:40.128Z,26.52
2023-04-13T13:39:10.020Z,28.80
2023-04-13T13:41:37.440Z,23.98
2023-04-13T13:44:04.719Z,28.35
2023-04-13T13:46:33.920Z,23.65
2023-04-13T13:49:01.337Z,23.15
2023-04-13T13:51:31.719Z,26.98
2023-04-13T13:53:59.297Z,30.77
2023-04-13T13:56:26.591Z,26.40
2023-04-13T13:58:54.166Z,28.60
2023-04-13T14:01:21.624Z,31.88
2023-04-13T14:03:49.925Z,33.25
2023-04-13T14:06:17.261Z,30.13
2023-04-13T14:08:46.699Z,37.58
2023-04-13T14:11:14.599Z,42.30
2023-04-13T14:13:41.864Z,36.72
2023-04-13T14:16:10.949Z,47.47
2023-04-13T14:18:39.654Z,35.05
2023-04-13T14:21:07.441Z,31.27
2023-04-13T14:23:40.344Z,31.65
2023-04-13T14:26:08.379Z,28.45
2023-04-13T14:28:36.822Z,35.80
2023-04-13T14:31:09.666Z,38.17
2023-04-13T14:33:41.983Z,41.05
2023-04-13T14:36:11.015Z,42.30
2023-04-13T14:38:38.722Z,42.90
2023-04-13T14:41:06.806Z,39.38
2023-04-13T14:43:34.361Z,43.75
2023-04-13T14:46:04.207Z,44.90
2023-04-13T14:48:32.911Z,43.90
2023-04-13T14:51:00.188Z,48.10
2023-04-13T14:53:30.804Z,52.78
2023-04-13T14:55:58.521Z,45.53
2023-04-13T14:58:26.201Z,48.78
2023-04-13T15:00:55.679Z,62.08
2023-04-13T15:03:29.126Z,57.78
2023-04-13T15:06:03.217Z,62.75
2023-04-13T15:08:32.623Z,57.03
2023-04-13T15:10:59.938Z,62.72
2023-04-13T15:13:27.145Z,69.82
2023-04-13T15:15:55.436Z,57.75
2023-04-13T15:18:22.721Z,62.58
2023-04-13T15:20:51.692Z,75.60
2023-04-13T15:23:20.043Z,63.83
2023-04-13T15:25:48.259Z,55.15
2023-04-13T15:28:16.327Z,53.47
2023-04-13T15:30:43.789Z,55.75
2023-04-13T15:33:11.376Z,57.40
2023-04-13T15:35:39.001Z,53.60
2023-04-13T15:38:06.524Z,44.40
2023-04-13T15:40:34.157Z,44.28
2023-04-13T15:43:02.677Z,40.70
2023-04-13T15:45:30.240Z,39.53
2023-04-13T15:47:59.751Z,34.65
2023-04-13T15:50:27.410Z,39.13
2023-04-13T15:52:55.542Z,30.52
2023-04-13T15:55:23.033Z,31.00
2023-04-13T15:57:50.767Z,29.58
2023-04-13T16:00:18.358Z,30.63
2023-04-13T16:02:46.397Z,27.92
2023-04-13T16:05:13.905Z,26.08
2023-04-13T16:07:43.786Z,31.88
2023-04-13T16:10:16.256Z,27.83
2023-04-13T16:12:44.783Z,29.85
2023-04-13T16:15:12.146Z,24.55
2023-04-13T16:20:12.408Z,20.15
2023-04-13T16:22:43.451Z,24.13
2023-04-13T16:25:15.609Z,22.75
2023-04-13T16:27:43.175Z,21.83
2023-04-13T16:30:12.886Z,18.00
2023-04-13T16:32:45.401Z,22.13
2023-04-13T16:35:13.016Z,17.33
2023-04-13T16:37:42.387Z,19.45
2023-04-13T16:40:13.570Z,16.83
2023-04-13T16:42:43.652Z,18.50
2023-04-13T16:45:14.338Z,18.40
2023-04-13T16:47:42.473Z,17.90
2023-04-13T16:50:11.528Z,16.75
2023-04-13T16:52:39.888Z,16.27
2023-04-13T16:55:13.999Z,20.33
2023-04-13T16:57:42.681Z,14.70
2023-04-13T17:00:11.068Z,19.55
2023-04-13T17:02:40.461Z,16.73
2023-04-13T17:05:08.921Z,14.65
2023-04-13T17:07:41.367Z,16.23
2023-04-13T17:10:17.436Z,17.65
2023-04-13T17:12:44.922Z,15.85
2023-04-13T17:15:12.219Z,15.48
2023-04-13T17:17:47.052Z,14.05
2023-04-13T17:20:17.060Z,12.80
2023-04-13T17:22:45.271Z,11.05
2023-04-13T17:25:16.139Z,10.40
2023-04-13T17:27:43.922Z,10.55
2023-04-13T17:30:11.956Z,8.52
2023-04-13T17:32:57.230Z,10.90
2023-04-13T17:35:24.620Z,12.40
2023-04-13T17:37:52.541Z,10.35
2023-04-13T17:40:26.266Z,7.35
2023-04-13T17:42:55.630Z,9.35
2023-04-13T17:45:23.044Z,8.50
2023-04-13T17:47:50.935Z,8.70
2023-04-13T17:50:18.744Z,6.45
2023-04-13T17:52:46.373Z,11.23
2023-04-13T17:55:16.607Z,8.13
2023-04-13T17:57:45.065Z,7.80
2023-04-13T18:00:13.166Z,9.88
2023-04-13T18:02:58.311Z,10.25
2023-04-13T18:05:26.751Z,9.65
2023-04-13T18:07:54.244Z,11.18
2023-04-13T18:10:21.498Z,10.38
2023-04-13T18:12:53.651Z,11.02
2023-04-13T18:15:20.982Z,11.45
2023-04-13T18:17:48.343Z,11.93
2023-04-13T18:20:15.773Z,10.98
2023-04-13T18:22:43.014Z,14.70
2023-04-13T18:25:10.616Z,13.60
2023-04-13T18:27:38.129Z,12.27
2023-04-13T18:30:08.711Z,12.98
2023-04-13T18:32:37.555Z,13.60
2023-04-13T18:35:05.076Z,13.18
2023-04-13T18:37:39.383Z,10.60
2023-04-13T18:40:07.412Z,11.85
2023-04-13T18:42:34.747Z,12.32
2023-04-13T18:45:02.106Z,12.55
2023-04-13T18:47:30.335Z,9.05
2023-04-13T18:49:58.219Z,8.43
2023-04-13T18:52:26.128Z,8.30
2023-04-13T18:54:53.625Z,7.15
2023-04-13T18:57:20.973Z,7.72
2023-04-13T18:59:49.098Z,9.88
2023-04-13T19:02:16.408Z,6.53
2023-04-13T19:04:43.851Z,10.30
2023-04-13T19:07:13.971Z,7.13
2023-04-13T19:09:42.881Z,7.20
2023-04-13T19:12:10.098Z,9.70
2023-04-13T19:14:41.204Z,7.55
2023-04-13T19:17:13.572Z,6.82
2023-04-13T19:19:40.863Z,6.00
2023-04-13T19:22:08.154Z,10.77
2023-04-13T19:24:38.117Z,7.15
2023-04-13T19:27:05.582Z,8.32
2023-04-13T19:29:34.235Z,10.73
2023-04-13T19:32:01.656Z,7.18
2023-04-13T19:34:29.069Z,10.27
2023-04-13T19:36:56.400Z,7.65
2023-04-13T19:39:23.624Z,8.90
2023-04-13T19:41:51.195Z,9.13
2023-04-13T19:44:18.511Z,9.55
2023-04-13T19:46:46.874Z,8.07
2023-04-13T19:49:14.107Z,7.30
2023-04-13T19:51:41.359Z,8.55
2023-04-13T19:54:11.281Z,9.75
2023-04-13T19:56:38.988Z,10.70
2023-04-13T19:59:06.436Z,10.80
2023-04-13T20:01:45.817Z,9.88
2023-04-13T20:04:14.086Z,11.15
2023-04-13T20:06:41.404Z,8.80
2023-04-13T20:09:12.879Z,7.88
2023-04-13T20:11:41.803Z,10.43
2023-04-13T20:14:11.549Z,12.75
2023-04-13T20:16:38.970Z,10.48
2023-04-13T20:19:06.964Z,12.32
2023-04-13T20:21:34.567Z,15.95
2023-04-13T20:24:02.631Z,20.38
2023-04-13T20:26:31.136Z,22.25
2023-04-13T20:29:03.875Z,24.65
2023-04-13T20:31:32.176Z,33.78
2023-04-13T20:34:00.435Z,39.17
2023-04-13T20:36:28.706Z,39.83
2023-04-13T20:39:00.628Z,35.53
2023-04-13T20:41:29.963Z,50.88
2023-04-13T20:43:58.746Z,50.10
2023-04-13T20:46:34.224Z,40.22
2023-04-13T20:49:02.779Z,40.88
2023-04-13T20:51:31.328Z,27.52
2023-04-13T20:54:00.842Z,21.77
2023-04-13T20:56:30.944Z,23.95
2023-04-13T20:58:58.454Z,18.08
2023-04-13T21:01:25.853Z,12.48
2023-04-13T21:03:55.359Z,21.17
2023-04-13T21:06:22.862Z,17.13
2023-04-13T21:08:52.765Z,16.67
2023-04-13T21:11:22.444Z,24.35
2023-04-13T21:13:49.693Z,25.70
2023-04-13T21:16:17.236Z,33.03
2023-04-13T21:18:51.444Z,30.30
2023-04-13T21:21:23.552Z,37.63
2023-04-13T21:23:51.268Z,34.25
2023-04-13T21:26:18.587Z,29.55
2023-04-13T21:28:48.137Z,34.72
2023-04-13T21:31:15.621Z,32.08
2023-04-13T21:33:43.095Z,29.20
2023-04-13T21:38:41.351Z,24.95
2023-04-13T21:41:16.064Z,25.88
2023-04-13T21:43:43.378Z,23.00
2023-04-13T21:46:12.670Z,21.70
2023-04-13T21:48:40.885Z,20.63
2023-04-13T21:51:08.917Z,19.58
2023-04-13T21:53:37.188Z,17.98
2023-04-13T21:56:04.884Z,27.63
2023-04-13T21:58:39.081Z,21.95
2023-04-13T22:01:07.256Z,19.17
2023-04-13T22:03:39.443Z,20.50
2023-04-13T22:08:35.080Z,19.10
2023-04-13T22:11:03.302Z,21.35
2023-04-13T22:13:30.694Z,21.58
2023-04-13T22:16:01.314Z,25.23
2023-04-13T22:18:28.979Z,24.25
2023-04-13T22:20:58.384Z,28.30
2023-04-13T22:23:26.404Z,24.40
2023-04-13T22:25:58.489Z,26.17
2023-04-13T22:28:28.458Z,21.98
2023-04-13T22:31:06.467Z,22.00
2023-04-13T22:33:40.307Z,21.20
2023-04-13T22:36:17.484Z,20.40
2023-04-13T22:38:48.089Z,25.52
2023-04-13T22:41:16.146Z,22.58
2023-04-13T22:43:43.418Z,27.83
2023-04-13T22:46:10.789Z,27.13
2023-04-13T22:48:38.337Z,33.95
2023-04-13T22:51:05.585Z,37.90
2023-04-13T22:53:32.950Z,36.05
2023-04-13T22:56:00.931Z,34.03
2023-04-13T22:58:28.807Z,33.25
2023-04-13T23:00:56.581Z,34.25
2023-04-13T23:03:24.904Z,30.85
2023-04-13T23:05:53.359Z,27.80
2023-04-13T23:08:20.602Z,29.33
2023-04-13T23:10:47.896Z,26.27
2023-04-13T23:13:15.630Z,31.98
2023-04-13T23:15:42.902Z,29.23
2023-04-13T23:18:10.417Z,34.63
2023-04-13T23:20:38.113Z,30.63
2023-04-13T23:23:05.574Z,30.58
2023-04-13T23:25:32.920Z,29.92
2023-04-13T23:28:00.436Z,35.28
2023-04-13T23:30:28.061Z,37.40
2023-04-13T23:32:56.978Z,40.20
2023-04-13T23:35:24.394Z,46.85
2023-04-13T23:37:51.759Z,45.13
2023-04-13T23:40:19.551Z,42.65
2023-04-13T23:42:46.852Z,39.08
2023-04-13T23:45:18.582Z,49.75
2023-04-13T23:47:45.929Z,52.63
2023-04-13T23:50:13.235Z,50.40
2023-04-13T23:52:42.196Z,47.08
2023-04-13T23:55:10.769Z,44.20
2023-04-13T23:57:40.403Z,45.38
